Annada, MO (63330)

3:36 PM CDT on July 29, 2014 (GMT -0500)
Katie Hollow (KILKAMPS2) Elev 545 ft | 39.30 °N, 90.71 °W | Change Station

Current weather conditions updated 20 seconds ago

Clear
Clear
79.0 °F
Feels Like 80 °F
N
0.0
Wind Variable Wind from NW
Gusts 9.0 mph

Today is forecast to be Warmer than yesterday.

Today
High -- | Low -- °F
--% Chance of Precip.
Yesterday
High -- | Low -- °F
Precip. -- in
6:00 AM 8:18 PM
Waxing Crescent, 7% visible
Pressure 30.13 in
Visibility 10.0 miles
Clouds Clear
Heat Index 80 °F
Dew Point 62 °F
Humidity 56%
Rainfall 0.00 in
Snow Depth Not available.
UV 9 out of 12
Pollen 6.30 out of 12
Air Quality Not available.
Flu Activity Not available.
METAR KPPQ 292015Z AUTO 34006KT 10SM CLR 25/12 A3013 RMK AO2 T02540124

More Conditions Fewer Conditions

Pressure 30.13 in
Visibility 10.0 miles
Clouds Clear
Heat Index 80 °F
Dew Point 62 °F
Humidity 56%
Rainfall 0.00 in
Snow Depth Not available.
UV 9 out of 12
Pollen 6.30 out of 12
Air Quality Not available.
Flu Activity Not available.
METAR KPPQ 292015Z AUTO 34006KT 10SM CLR 25/12 A3013 RMK AO2 T02540124

More Conditions Fewer Conditions

10-Day Weather Forecast

Almanac

Astronomy

Jul. 29, 2014 Rise Set
Actual Time 6:00 AM CDT 8:18 PM CDT
Civil Twilight 5:30 AM CDT 8:48 PM CDT
Nautical Twilight 4:53 AM CDT 9:25 PM CDT
Astronomical Twilight 4:12 AM CDT 10:05 PM CDT
Moon 8:36 AM CDT 9:32 PM CDT
Length of Visible Light 15h 17m
Length of Day
14h 17m
Tomorrow will be 1m 52s shorter.
Waxing Crescent, 7% of the Moon is Illuminated
Today
Waxing Crescent
Aug 3
First Quarter
Aug 10
Full
Aug 17
Last Quarter
Aug 25
New

Today's Extremes

State Highs State Lows

Community

WunderPhotos

Upload Photos

1,738,851 photos uploaded!

Nearby

Snow Depth

Station Depth Elevation
No new snow has been reported.

Earthquake Activity

City Distance Mag. Time & Date
No recent earthquake activity has been reported nearby.
Minimum magnitude displayed is 2.5.

Coastal Water Temperatures

Place Temperature
No Stations Reporting

Nearby Weather Stations

Station Location Temp. Heat Index Dew Point Humidity Wind Precip. Elev Updated Type
Katie Hollow, Kampsville, IL 79.0 °F 80 °F 62 °F 56% NW  at  0.0 mph 0.00 in / hr 545 ft 3:36 PM CDT Rapid Fire
Blue Ridge, Hardin, IL 75.3 °F 78 °F 58 °F 56% NW  at  4.0 mph 0.00 in / hr 748 ft 3:24 PM CDT Normal
Batchtown, Batchtown, IL 77.7 °F 79 °F 63 °F 60% West  at  1.0 mph 0.00 in / hr 590 ft 3:34 PM CDT Normal
N0YWD, Louisiana, MO 76.5 °F 78 °F 57 °F 51% West  at  0.0 mph 0.00 in / hr 525 ft 3:32 PM CDT Rapid Fire
Cuivre Valley, Troy, MO 76.3 °F 78 °F 58 °F 54% NW  at  5.0 mph 0.00 in / hr 610 ft 3:36 PM CDT Rapid Fire

Show More Stations Show Fewer Stations